Latest Coastal Weather Observations for Bellambi

IDN60701

Issued at 1:12 am EDT Monday 26 January 2015 (issued every 10 minutes, with the page automatically refreshed every 10 minutes)

About coastal observations | Map of coastal stations | Coastal observations for NSW | Marine services | Other Formats
Station Details ID: 068228 Name: BELLAMBI AWS Lat: -34.37 Lon: 150.93 Height: 10.0 m
Data from the previous 72 hours. | See also: Recent months at Bellambi
Date/Time
EDT
Temp

°C
Wind Pressure Rain
since 9am
mm
Weather Cloud Vis
km
Sea
Height
m
Swell
Dir
 
Speed
knots
Gust
knots
hPa Trend Height
m
Period
s
Dir
26/01:00am 20.0 SSW 17 20 - - 0.0 - Partly cloudy - - - - -
26/12:30am 20.1 SSW 16 20 - - 0.0 - Partly cloudy - - - - -
26/12:00am 20.3 SSW 17 21 - - 0.0 - Mostly clear - - - - -
 
Date/Time
EDT
Temp

°C
Wind Pressure Rain
since 9am
mm
Weather Cloud Vis
km
Sea
Height
m
Swell
Dir
 
Speed
knots
Gust
knots
hPa Trend Height
m
Period
s
Dir
25/11:30pm 20.3 SSW 18 21 - - 0.0 - Cloudy - - - - -
25/11:00pm 20.4 SSW 20 23 - - 0.0 - Cloudy - - - - -
25/10:30pm 20.6 S 22 25 - - 0.0 - Cloudy - - - - -
25/10:00pm 20.8 S 21 25 - - 0.0 - Cloudy - - - - -
25/09:30pm 21.0 S 21 25 - - 0.0 - Partly cloudy - - - - -
25/09:00pm 21.2 S 19 23 - - 0.0 - Cloudy - - - - -
25/08:30pm 21.3 SSW 22 26 - - 0.0 - Partly cloudy - - - - -
25/08:00pm 21.4 S 21 25 - - 0.0 - Cloudy - - - - -
25/07:30pm 21.7 S 25 31 - - 0.0 - Partly cloudy - - - - -
25/07:00pm 22.1 SSW 21 30 - - 0.0 - Partly cloudy - - - - -
25/06:30pm 22.5 SSW 26 33 - - 0.0 - - - - - - -
25/06:18pm 22.8 SSW 27 37 - - 0.0 - - - - - - -
25/06:00pm 23.2 S 26 32 - - 0.0 - - - - - - -
25/05:45pm 24.9 E 7 27 - - 0.0 - - - - - - -
25/05:30pm 25.7 ENE 4 5 - - 0.0 - - - - - - -
25/05:00pm 26.1 NE 5 8 - - 0.0 - - - - - - -
25/04:30pm 26.0 NNE 7 10 - - 0.0 - - - - - - -
25/04:00pm 26.1 NNE 6 7 - - 0.0 - Partly cloudy - - - - -
25/03:30pm 25.9 NE 6 8 - - 0.0 - Partly cloudy - - - - -
25/03:00pm 26.3 N 6 8 - - 0.0 - Mostly clear - - - - -
25/02:30pm 25.9 NNE 4 6 - - 0.0 - Partly cloudy - - - - -
25/02:00pm 26.1 N 6 10 - - 0.0 - Partly cloudy - - - - -
25/01:30pm 25.9 NE 5 7 - - 0.0 - Partly cloudy - - - - -
25/01:00pm 25.4 N 7 9 - - 0.0 - - - - - - -
25/12:30pm 25.2 NNE 7 9 - - 0.0 - - - - - - -
25/12:00pm 25.3 NNE 8 11 - - 0.0 - - - - - - -
25/11:30am 24.7 NNE 5 9 - - 0.0 - - - - - - -
25/11:00am 24.8 NE 8 9 - - 0.0 - - - - - - -
25/10:30am 24.7 NNE 5 7 - - 0.0 - - - - - - -
25/10:00am 23.7 N 9 11 - - 0.0 - - - - - - -
25/09:30am 24.0 N 9 11 - - 0.0 - - - - - - -
25/09:00am 25.5 NW 6 7 - - 4.6 - - - - - - -
25/08:30am 24.5 NW 4 7 - - 4.6 - - - - - - -
25/08:00am 23.1 NNW 5 9 - - 4.6 - - - - - - -
25/07:30am 22.5 NW 7 10 - - 4.6 - - - - - - -
25/07:00am 21.9 NW 5 8 - - 4.6 - - - - - - -
25/06:30am 21.4 NNW 4 5 - - 4.6 - - - - - - -
25/06:00am 21.9 WNW 7 8 - - 4.6 - - - - - - -
25/05:30am 22.6 NW 8 10 - - 4.6 - - - - - - -
25/05:00am 22.5 NW 10 14 - - 4.6 - - - - - - -
25/04:30am 22.3 WNW 9 13 - - 4.6 - - - - - - -
25/04:00am 22.0 W 3 7 - - 4.6 - - - - - - -
25/03:30am 22.7 WNW 8 13 - - 4.6 - - - - - - -
25/03:00am 22.6 WNW 15 20 - - 4.6 - - - - - - -
25/02:30am 21.4 WNW 11 16 - - 4.6 - - - - - - -
25/02:00am 21.6 NW 12 15 - - 4.6 - - - - - - -
25/01:30am 21.8 NW 11 15 - - 4.6 - - - - - - -
25/01:00am 22.1 N 8 9 - - 4.6 - - - - - - -
25/12:30am 22.2 N 8 10 - - 4.6 - - - - - - -
25/12:00am 22.2 N 7 10 - - 4.6 Recent precip. Mostly cloudy - - - - -
 
Date/Time
EDT
Temp

°C
Wind Pressure Rain
since 9am
mm
Weather Cloud Vis
km
Sea
Height
m
Swell
Dir
 
Speed
knots
Gust
knots
hPa Trend Height
m
Period
s
Dir
24/11:30pm 22.1 N 7 11 - - 4.4 - Cloudy - - - - -
24/11:00pm 22.7 N 1 5 - - 3.2 - Partly cloudy - - - - -
24/10:30pm 23.0 NNE 8 10 - - 0.8 - Partly cloudy - - - - -
24/10:00pm 23.6 CALM 0 4 - - 0.0 - Partly cloudy - - - - -
24/09:30pm 23.7 SSW 3 4 - - 0.0 - Cloudy - - - - -
24/09:00pm 23.1 WNW 3 7 - - 0.0 - Cloudy - - - - -
24/08:30pm 23.0 N 5 6 - - 0.0 - - - - - - -
24/08:00pm 23.1 NNE 7 8 - - 0.0 - Partly cloudy - - - - -
24/07:30pm 23.2 NNE 11 15 - - 0.0 - - - - - - -
24/07:00pm 23.4 NE 12 14 - - 0.0 - - - - - - -
24/06:30pm 23.6 NE 14 16 - - 0.0 - - - - - - -
24/06:00pm 23.7 NE 16 20 - - 0.0 - Cloudy - - - - -
24/05:30pm 23.7 NE 19 21 - - 0.0 - - - - - - -
24/05:00pm 23.7 NE 16 18 - - 0.0 - - - - - - -
24/04:30pm 23.7 NE 17 20 - - 0.0 - - - - - - -
24/04:00pm 24.0 NE 19 22 - - 0.0 - - - - - - -
24/03:30pm 24.8 NE 19 22 - - 0.0 - - - - - - -
24/03:00pm 24.9 NE 19 23 - - 0.0 - - - - - - -
24/02:30pm 25.1 NE 16 22 - - 0.0 - - - - - - -
24/02:00pm 24.5 N 8 12 - - 0.0 - Partly cloudy - - - - -
24/01:30pm 24.8 N 9 12 - - 0.0 - - - - - - -
24/01:00pm 24.8 N 8 11 - - 0.0 - - - - - - -
24/12:30pm 24.7 N 7 8 - - 0.0 - - - - - - -
24/12:00pm 24.9 NNE 7 9 - - 0.0 - - - - - - -
24/11:30am 24.6 NE 6 7 - - 0.0 - - - - - - -
24/11:00am 24.5 NNE 5 7 - - 0.0 - - - - - - -
24/10:30am 24.7 NE 6 7 - - 0.0 - - - - - - -
24/10:00am 24.1 NE 6 7 - - 0.0 - Partly cloudy - - - - -
24/09:30am 23.8 NE 5 6 - - 0.0 - Partly cloudy - - - - -
24/09:00am 23.1 NNE 3 5 - - 0.0 - Cloudy - - - - -
24/08:30am 22.9 NNE 1 4 - - 0.0 - Cloudy - - - - -
24/08:00am 22.8 CALM 0 0 - - 0.0 - Partly cloudy - - - - -
24/07:30am 22.4 CALM 0 0 - - 0.0 - Cloudy - - - - -
24/07:00am 22.2 SW 5 7 - - 0.0 - Cloudy - - - - -
24/06:30am 21.7 SW 5 7 - - 0.0 - Cloudy - - - - -
24/06:00am 21.2 SW 5 6 - - 0.0 - Mostly cloudy - - - - -
24/05:30am 21.3 WSW 4 5 - - 0.0 - Partly cloudy - - - - -
24/05:00am 21.4 CALM 0 0 - - 0.0 - Partly cloudy - - - - -
24/04:30am 21.6 CALM 0 0 - - 0.0 - - - - - - -
24/04:00am 21.5 CALM 0 0 - - 0.0 - - - - - - -
24/03:30am 21.7 CALM 0 0 - - 0.0 - - - - - - -
24/03:00am 21.9 CALM 0 3 - - 0.0 - - - - - - -
24/02:30am 21.8 NNE 3 5 - - 0.0 - - - - - - -
24/02:00am 22.1 N 6 7 - - 0.0 - - - - - - -
24/01:30am 22.3 NNE 6 8 - - 0.0 - - - - - - -
24/01:00am 22.2 NNE 8 10 - - 0.0 - - - - - - -
24/12:30am 22.3 NNE 5 6 - - 0.0 - - - - - - -
24/12:00am 22.4 NNE 5 8 - - 0.0 - - - - - - -
 
Date/Time
EDT
Temp

°C
Wind Pressure Rain
since 9am
mm
Weather Cloud Vis
km
Sea
Height
m
Swell
Dir
 
Speed
knots
Gust
knots
hPa Trend Height
m
Period
s
Dir
23/11:30pm 22.4 NNE 9 11 - - 0.0 - - - - - - -
23/11:00pm 22.6 NNE 8 11 - - 0.0 - - - - - - -
23/10:30pm 22.8 NE 10 11 - - 0.0 - - - - - - -
23/10:00pm 22.9 NE 9 11 - - 0.0 - - - - - - -
23/09:30pm 23.2 NE 11 13 - - 0.0 - - - - - - -
23/09:00pm 23.4 NE 15 16 - - 0.0 - Mostly cloudy - - - - -
23/08:30pm 23.4 NE 14 16 - - 0.0 - - - - - - -
23/08:00pm 23.5 NE 13 16 - - 0.0 - - - - - - -
23/07:30pm 23.7 NNE 13 15 - - 0.0 - Partly cloudy - - - - -
23/07:00pm 23.4 NNE 14 19 - - 0.0 - Partly cloudy - - - - -
23/06:30pm 23.4 NE 19 21 - - 0.0 - Partly cloudy - - - - -
23/06:00pm 23.5 NE 20 24 - - 0.0 - Cloudy - - - - -
23/05:30pm 23.7 NE 21 25 - - 0.0 - Partly cloudy - - - - -
23/05:00pm 23.7 NE 22 25 - - 0.0 - - - - - - -
23/04:30pm 23.9 NE 22 25 - - 0.0 - - - - - - -
23/04:00pm 25.1 NE 21 25 - - 0.0 - - - - - - -
23/03:30pm 25.1 NE 22 24 - - 0.0 - - - - - - -
23/03:00pm 25.3 NE 21 24 - - 0.0 - - - - - - -
23/02:30pm 25.5 NE 18 22 - - 0.0 - - - - - - -
23/02:00pm 25.6 NE 16 19 - - 0.0 - - - - - - -
23/01:30pm 25.7 NNE 13 17 - - 0.0 - - - - - - -
23/01:00pm 25.4 NNE 12 15 - - 0.0 - - - - - - -
23/12:30pm 25.4 NNE 11 14 - - 0.0 - - - - - - -
23/12:00pm 25.3 NNE 11 15 - - 0.0 - - - - - - -
23/11:30am 24.9 NE 14 16 - - 0.0 - - - - - - -
23/11:00am 24.9 NE 13 17 - - 0.0 - - - - - - -
23/10:30am 24.8 NE 11 13 - - 0.0 - - - - - - -
23/10:00am 24.5 ENE 11 13 - - 0.0 - Partly cloudy - - - - -
23/09:30am 24.4 ENE 9 10 - - 0.0 - Partly cloudy - - - - -
23/09:00am 24.4 NE 9 10 - - 0.0 - - - - - - -
23/08:30am 23.9 NNE 5 8 - - 0.0 - - - - - - -
23/08:00am 23.3 NNE 5 7 - - 0.0 - - - - - - -
23/07:30am 22.8 NNE 5 6 - - 0.0 - - - - - - -
23/07:00am 22.5 N 4 5 - - 0.0 - Partly cloudy - - - - -
23/06:30am 22.3 NNE 7 9 - - 0.0 - - - - - - -
23/06:00am 22.4 NE 10 12 - - 0.0 - - - - - - -
23/05:30am 22.4 NNE 6 7 - - 0.0 - - - - - - -
23/05:00am 22.3 N 1 4 - - 0.0 - - - - - - -
23/04:30am 22.8 N 6 9 - - 0.0 - Partly cloudy - - - - -
23/04:00am 22.9 N 6 8 - - 0.0 - Partly cloudy - - - - -
23/03:30am 23.1 N 8 11 - - 0.0 - Partly cloudy - - - - -
23/03:00am 23.3 N 10 13 - - 0.0 - Mostly cloudy - - - - -
23/02:30am 23.4 N 11 13 - - 0.0 - Partly cloudy - - - - -
23/02:00am 23.2 NNW 10 12 - - 0.0 - Cloudy - - - - -
23/01:30am 23.2 N 9 13 - - 0.0 - Partly cloudy - - - - -

Other Formats:

Comma delimited format used in spreadsheet applications
http://www.bom.gov.au/fwo/IDN60701/IDN60701.94749.axf

JavaScript Object Notation format (JSON) in row-major order
http://www.bom.gov.au/fwo/IDN60701/IDN60701.94749.json